LFRC

Cherbourg-Maupertus Airport

Airport
ICAO code
LFRC
IATA Code
CER
Summary
ICAO Region
EUR
ICAO Territory
Location

, Basse-Normandie

Serving
Cherbourg
Elevation
459 ft
Coordinates
49° 39' 0" N , 1° 28' 13" W
Metar
LFRC 150200Z AUTO 25011KT 9999 FEW018 SCT050 10/09 Q1003

Runways

Designator Length Width Surface Rops
10/28 2440 45 ASP No/No

Airport map

Aerial View

SKYbrary Partners:

Safety knowledge contributed by: